sensor_id;sensor_type;location;lat;lon;timestamp;P1;durP1;ratioP1;P2;durP2;ratioP2
15142;SDS011;7672;50.834;6.286;2022-09-03T00:00:08;2.97;;;1.67;;
15142;SDS011;7672;50.834;6.286;2022-09-03T00:02:43;3.20;;;1.47;;
15142;SDS011;7672;50.834;6.286;2022-09-03T00:11:10;2.43;;;1.43;;
15142;SDS011;7672;50.834;6.286;2022-09-03T00:14:08;1.77;;;1.53;;
15142;SDS011;7672;50.834;6.286;2022-09-03T00:16:50;3.00;;;1.50;;
15142;SDS011;7672;50.834;6.286;2022-09-03T00:19:23;4.50;;;1.50;;
15142;SDS011;7672;50.834;6.286;2022-09-03T00:21:59;2.50;;;1.83;;
15142;SDS011;7672;50.834;6.286;2022-09-03T00:24:37;2.90;;;1.50;;
15142;SDS011;7672;50.834;6.286;2022-09-03T00:27:10;4.47;;;2.23;;
15142;SDS011;7672;50.834;6.286;2022-09-03T00:29:50;4.07;;;1.50;;
15142;SDS011;7672;50.834;6.286;2022-09-03T00:32:52;4.30;;;1.90;;
15142;SDS011;7672;50.834;6.286;2022-09-03T00:35:33;1.87;;;1.43;;
15142;SDS011;7672;50.834;6.286;2022-09-03T00:38:13;1.83;;;1.60;;
15142;SDS011;7672;50.834;6.286;2022-09-03T00:49:09;2.17;;;1.30;;
15142;SDS011;7672;50.834;6.286;2022-09-03T00:52:30;2.57;;;1.63;;
15142;SDS011;7672;50.834;6.286;2022-09-03T00:55:21;2.20;;;2.00;;
15142;SDS011;7672;50.834;6.286;2022-09-03T00:58:14;3.70;;;1.77;;
15142;SDS011;7672;50.834;6.286;2022-09-03T01:00:55;7.83;;;1.73;;
15142;SDS011;7672;50.834;6.286;2022-09-03T01:06:17;1.67;;;1.57;;
15142;SDS011;7672;50.834;6.286;2022-09-03T01:09:19;3.93;;;1.60;;
15142;SDS011;7672;50.834;6.286;2022-09-03T01:12:17;3.57;;;1.47;;
15142;SDS011;7672;50.834;6.286;2022-09-03T01:15:29;4.37;;;1.63;;
15142;SDS011;7672;50.834;6.286;2022-09-03T01:24:54;1.53;;;1.40;;
15142;SDS011;7672;50.834;6.286;2022-09-03T01:30:35;2.90;;;1.30;;
15142;SDS011;7672;50.834;6.286;2022-09-03T01:33:38;3.73;;;1.40;;
15142;SDS011;7672;50.834;6.286;2022-09-03T01:36:33;4.10;;;1.57;;
15142;SDS011;7672;50.834;6.286;2022-09-03T01:39:40;3.67;;;1.57;;
15142;SDS011;7672;50.834;6.286;2022-09-03T01:42:28;2.10;;;1.47;;
15142;SDS011;7672;50.834;6.286;2022-09-03T01:51:24;2.60;;;1.40;;
15142;SDS011;7672;50.834;6.286;2022-09-03T01:59:58;3.07;;;1.23;;
15142;SDS011;7672;50.834;6.286;2022-09-03T02:02:30;2.27;;;1.60;;
15142;SDS011;7672;50.834;6.286;2022-09-03T02:05:03;6.37;;;1.70;;
15142;SDS011;7672;50.834;6.286;2022-09-03T02:10:18;2.23;;;1.50;;
15142;SDS011;7672;50.834;6.286;2022-09-03T02:13:01;4.13;;;1.67;;
15142;SDS011;7672;50.834;6.286;2022-09-03T02:15:36;1.73;;;1.23;;
15142;SDS011;7672;50.834;6.286;2022-09-03T02:18:09;3.17;;;1.57;;
15142;SDS011;7672;50.834;6.286;2022-09-03T02:20:45;2.87;;;1.70;;
15142;SDS011;7672;50.834;6.286;2022-09-03T02:23:14;3.23;;;1.50;;
15142;SDS011;7672;50.834;6.286;2022-09-03T02:25:47;3.83;;;1.80;;
15142;SDS011;7672;50.834;6.286;2022-09-03T02:28:18;3.93;;;1.40;;
15142;SDS011;7672;50.834;6.286;2022-09-03T02:30:45;1.63;;;1.27;;
15142;SDS011;7672;50.834;6.286;2022-09-03T02:33:13;2.93;;;1.60;;
15142;SDS011;7672;50.834;6.286;2022-09-03T02:35:42;3.03;;;1.70;;
15142;SDS011;7672;50.834;6.286;2022-09-03T02:40:44;3.47;;;1.83;;
15142;SDS011;7672;50.834;6.286;2022-09-03T02:43:18;2.97;;;1.90;;
15142;SDS011;7672;50.834;6.286;2022-09-03T02:46:01;6.83;;;1.93;;
15142;SDS011;7672;50.834;6.286;2022-09-03T02:48:34;4.00;;;2.10;;
15142;SDS011;7672;50.834;6.286;2022-09-03T02:51:01;3.03;;;1.80;;
15142;SDS011;7672;50.834;6.286;2022-09-03T02:53:39;6.67;;;1.83;;
15142;SDS011;7672;50.834;6.286;2022-09-03T02:56:06;4.57;;;1.90;;
15142;SDS011;7672;50.834;6.286;2022-09-03T02:58:33;5.07;;;2.03;;
15142;SDS011;7672;50.834;6.286;2022-09-03T03:01:00;3.47;;;2.10;;
15142;SDS011;7672;50.834;6.286;2022-09-03T03:03:27;4.70;;;2.20;;
15142;SDS011;7672;50.834;6.286;2022-09-03T03:05:55;3.37;;;1.73;;
15142;SDS011;7672;50.834;6.286;2022-09-03T03:08:27;6.00;;;1.50;;
15142;SDS011;7672;50.834;6.286;2022-09-03T03:10:55;2.00;;;1.70;;
15142;SDS011;7672;50.834;6.286;2022-09-03T03:13:25;2.50;;;1.80;;
15142;SDS011;7672;50.834;6.286;2022-09-03T03:15:55;4.83;;;2.03;;
15142;SDS011;7672;50.834;6.286;2022-09-03T03:18:28;7.73;;;2.13;;
15142;SDS011;7672;50.834;6.286;2022-09-03T03:20:55;1.80;;;1.70;;
15142;SDS011;7672;50.834;6.286;2022-09-03T03:23:22;3.27;;;1.70;;
15142;SDS011;7672;50.834;6.286;2022-09-03T03:25:49;3.40;;;1.97;;
15142;SDS011;7672;50.834;6.286;2022-09-03T03:28:15;2.70;;;1.90;;
15142;SDS011;7672;50.834;6.286;2022-09-03T03:30:45;2.27;;;2.07;;
15142;SDS011;7672;50.834;6.286;2022-09-03T03:33:14;3.23;;;1.80;;
15142;SDS011;7672;50.834;6.286;2022-09-03T03:35:41;3.37;;;1.70;;
15142;SDS011;7672;50.834;6.286;2022-09-03T03:38:08;4.47;;;1.50;;
15142;SDS011;7672;50.834;6.286;2022-09-03T03:40:38;4.40;;;1.70;;
15142;SDS011;7672;50.834;6.286;2022-09-03T03:43:05;2.63;;;1.70;;
15142;SDS011;7672;50.834;6.286;2022-09-03T03:45:32;4.47;;;1.90;;
15142;SDS011;7672;50.834;6.286;2022-09-03T03:48:00;2.23;;;1.67;;
15142;SDS011;7672;50.834;6.286;2022-09-03T03:50:28;2.17;;;1.60;;
15142;SDS011;7672;50.834;6.286;2022-09-03T03:52:59;2.47;;;1.30;;
15142;SDS011;7672;50.834;6.286;2022-09-03T03:55:35;1.70;;;1.60;;
15142;SDS011;7672;50.834;6.286;2022-09-03T03:58:02;2.57;;;2.20;;
15142;SDS011;7672;50.834;6.286;2022-09-03T04:00:28;5.13;;;2.00;;
15142;SDS011;7672;50.834;6.286;2022-09-03T04:02:56;1.60;;;1.50;;
15142;SDS011;7672;50.834;6.286;2022-09-03T04:05:24;2.03;;;1.37;;
15142;SDS011;7672;50.834;6.286;2022-09-03T04:07:51;2.37;;;1.53;;
15142;SDS011;7672;50.834;6.286;2022-09-03T04:10:18;3.23;;;1.63;;
15142;SDS011;7672;50.834;6.286;2022-09-03T04:12:45;5.67;;;1.80;;
15142;SDS011;7672;50.834;6.286;2022-09-03T04:15:12;4.43;;;1.30;;
15142;SDS011;7672;50.834;6.286;2022-09-03T04:17:39;9.13;;;2.17;;
15142;SDS011;7672;50.834;6.286;2022-09-03T04:20:06;4.50;;;1.33;;
15142;SDS011;7672;50.834;6.286;2022-09-03T04:22:33;2.40;;;1.73;;
15142;SDS011;7672;50.834;6.286;2022-09-03T04:24:59;2.80;;;1.50;;
15142;SDS011;7672;50.834;6.286;2022-09-03T04:27:26;2.97;;;1.30;;
15142;SDS011;7672;50.834;6.286;2022-09-03T04:29:53;4.27;;;1.40;;
15142;SDS011;7672;50.834;6.286;2022-09-03T04:32:21;2.07;;;1.40;;
15142;SDS011;7672;50.834;6.286;2022-09-03T04:35:07;3.57;;;1.30;;
15142;SDS011;7672;50.834;6.286;2022-09-03T04:37:35;4.47;;;1.40;;
15142;SDS011;7672;50.834;6.286;2022-09-03T04:40:02;1.57;;;1.47;;
15142;SDS011;7672;50.834;6.286;2022-09-03T04:42:32;2.77;;;1.40;;
15142;SDS011;7672;50.834;6.286;2022-09-03T04:44:59;1.90;;;1.43;;
15142;SDS011;7672;50.834;6.286;2022-09-03T04:47:44;4.17;;;1.50;;
15142;SDS011;7672;50.834;6.286;2022-09-03T04:50:28;3.70;;;1.43;;
15142;SDS011;7672;50.834;6.286;2022-09-03T04:53:01;2.43;;;1.27;;
15142;SDS011;7672;50.834;6.286;2022-09-03T04:55:34;2.00;;;1.60;;
15142;SDS011;7672;50.834;6.286;2022-09-03T04:58:03;7.47;;;1.77;;
15142;SDS011;7672;50.834;6.286;2022-09-03T05:00:42;2.37;;;1.60;;
15142;SDS011;7672;50.834;6.286;2022-09-03T05:03:12;2.47;;;1.77;;
15142;SDS011;7672;50.834;6.286;2022-09-03T05:05:39;2.30;;;1.50;;
15142;SDS011;7672;50.834;6.286;2022-09-03T05:08:06;2.97;;;1.63;;
15142;SDS011;7672;50.834;6.286;2022-09-03T05:10:38;3.53;;;1.90;;
15142;SDS011;7672;50.834;6.286;2022-09-03T05:13:05;3.03;;;1.67;;
15142;SDS011;7672;50.834;6.286;2022-09-03T05:15:33;2.50;;;1.70;;
15142;SDS011;7672;50.834;6.286;2022-09-03T05:18:00;2.40;;;1.43;;
15142;SDS011;7672;50.834;6.286;2022-09-03T05:20:29;2.30;;;1.53;;
15142;SDS011;7672;50.834;6.286;2022-09-03T05:23:01;2.20;;;1.60;;
15142;SDS011;7672;50.834;6.286;2022-09-03T05:25:29;9.30;;;1.50;;
15142;SDS011;7672;50.834;6.286;2022-09-03T05:27:58;1.93;;;1.30;;
15142;SDS011;7672;50.834;6.286;2022-09-03T05:30:27;1.70;;;1.30;;
15142;SDS011;7672;50.834;6.286;2022-09-03T05:32:55;3.47;;;1.50;;
15142;SDS011;7672;50.834;6.286;2022-09-03T05:35:26;1.60;;;1.50;;
15142;SDS011;7672;50.834;6.286;2022-09-03T05:37:55;2.60;;;1.20;;
15142;SDS011;7672;50.834;6.286;2022-09-03T05:40:23;1.40;;;1.30;;
15142;SDS011;7672;50.834;6.286;2022-09-03T05:42:54;4.87;;;2.13;;
15142;SDS011;7672;50.834;6.286;2022-09-03T05:45:23;1.87;;;1.40;;
15142;SDS011;7672;50.834;6.286;2022-09-03T05:47:50;1.87;;;1.63;;
15142;SDS011;7672;50.834;6.286;2022-09-03T05:50:17;2.33;;;1.60;;
15142;SDS011;7672;50.834;6.286;2022-09-03T05:52:44;4.73;;;1.77;;
15142;SDS011;7672;50.834;6.286;2022-09-03T05:55:11;3.03;;;1.73;;
15142;SDS011;7672;50.834;6.286;2022-09-03T05:57:40;2.53;;;1.60;;
15142;SDS011;7672;50.834;6.286;2022-09-03T06:00:07;3.03;;;1.70;;
15142;SDS011;7672;50.834;6.286;2022-09-03T06:02:37;2.17;;;1.90;;
15142;SDS011;7672;50.834;6.286;2022-09-03T06:05:04;4.33;;;1.90;;
15142;SDS011;7672;50.834;6.286;2022-09-03T06:07:33;2.20;;;1.50;;
15142;SDS011;7672;50.834;6.286;2022-09-03T06:10:00;4.13;;;1.97;;
15142;SDS011;7672;50.834;6.286;2022-09-03T06:12:26;2.43;;;1.60;;
15142;SDS011;7672;50.834;6.286;2022-09-03T06:14:53;1.67;;;1.57;;
15142;SDS011;7672;50.834;6.286;2022-09-03T06:17:21;2.80;;;1.50;;
15142;SDS011;7672;50.834;6.286;2022-09-03T06:19:48;2.13;;;1.70;;
15142;SDS011;7672;50.834;6.286;2022-09-03T06:22:15;1.93;;;1.47;;
15142;SDS011;7672;50.834;6.286;2022-09-03T06:24:43;4.73;;;1.73;;
15142;SDS011;7672;50.834;6.286;2022-09-03T06:27:10;4.53;;;1.70;;
15142;SDS011;7672;50.834;6.286;2022-09-03T06:29:37;4.10;;;1.70;;
15142;SDS011;7672;50.834;6.286;2022-09-03T06:32:04;3.40;;;1.70;;
15142;SDS011;7672;50.834;6.286;2022-09-03T06:34:32;3.67;;;1.63;;
15142;SDS011;7672;50.834;6.286;2022-09-03T06:36:58;3.47;;;1.67;;
15142;SDS011;7672;50.834;6.286;2022-09-03T06:39:25;3.07;;;1.57;;
15142;SDS011;7672;50.834;6.286;2022-09-03T06:41:52;2.53;;;1.77;;
15142;SDS011;7672;50.834;6.286;2022-09-03T06:44:20;2.00;;;1.80;;
15142;SDS011;7672;50.834;6.286;2022-09-03T06:46:47;2.57;;;1.83;;
15142;SDS011;7672;50.834;6.286;2022-09-03T06:49:13;3.90;;;2.27;;
15142;SDS011;7672;50.834;6.286;2022-09-03T06:51:40;2.27;;;1.70;;
15142;SDS011;7672;50.834;6.286;2022-09-03T06:54:09;3.37;;;1.83;;
15142;SDS011;7672;50.834;6.286;2022-09-03T06:56:39;4.87;;;1.90;;
15142;SDS011;7672;50.834;6.286;2022-09-03T06:59:10;4.33;;;1.60;;
15142;SDS011;7672;50.834;6.286;2022-09-03T07:01:40;7.50;;;1.63;;
15142;SDS011;7672;50.834;6.286;2022-09-03T07:04:11;4.27;;;1.90;;
15142;SDS011;7672;50.834;6.286;2022-09-03T07:06:46;8.20;;;1.83;;
15142;SDS011;7672;50.834;6.286;2022-09-03T07:09:13;5.60;;;1.87;;
15142;SDS011;7672;50.834;6.286;2022-09-03T07:11:43;2.07;;;1.57;;
15142;SDS011;7672;50.834;6.286;2022-09-03T07:14:15;3.83;;;1.73;;
15142;SDS011;7672;50.834;6.286;2022-09-03T07:16:44;2.13;;;1.47;;
15142;SDS011;7672;50.834;6.286;2022-09-03T07:19:14;4.70;;;1.80;;
15142;SDS011;7672;50.834;6.286;2022-09-03T07:21:42;5.83;;;1.77;;
15142;SDS011;7672;50.834;6.286;2022-09-03T07:24:15;3.93;;;1.90;;
15142;SDS011;7672;50.834;6.286;2022-09-03T07:26:43;4.00;;;2.00;;
15142;SDS011;7672;50.834;6.286;2022-09-03T07:29:12;6.60;;;2.17;;
15142;SDS011;7672;50.834;6.286;2022-09-03T07:31:41;4.70;;;1.73;;
15142;SDS011;7672;50.834;6.286;2022-09-03T07:34:10;4.88;;;1.60;;
15142;SDS011;7672;50.834;6.286;2022-09-03T07:36:39;4.22;;;1.65;;
15142;SDS011;7672;50.834;6.286;2022-09-03T07:39:10;5.22;;;1.60;;
15142;SDS011;7672;50.834;6.286;2022-09-03T07:41:39;6.10;;;1.90;;
15142;SDS011;7672;50.834;6.286;2022-09-03T07:44:11;5.72;;;1.80;;
15142;SDS011;7672;50.834;6.286;2022-09-03T07:46:41;2.58;;;1.50;;
15142;SDS011;7672;50.834;6.286;2022-09-03T07:49:10;7.43;;;1.75;;
15142;SDS011;7672;50.834;6.286;2022-09-03T07:51:38;1.98;;;1.50;;
15142;SDS011;7672;50.834;6.286;2022-09-03T07:54:06;1.95;;;1.50;;
15142;SDS011;7672;50.834;6.286;2022-09-03T07:56:38;3.00;;;1.80;;
15142;SDS011;7672;50.834;6.286;2022-09-03T07:59:06;2.90;;;1.80;;
15142;SDS011;7672;50.834;6.286;2022-09-03T08:01:36;2.33;;;1.52;;
15142;SDS011;7672;50.834;6.286;2022-09-03T08:04:07;3.72;;;1.77;;
15142;SDS011;7672;50.834;6.286;2022-09-03T08:06:35;3.15;;;1.75;;
15142;SDS011;7672;50.834;6.286;2022-09-03T08:09:15;2.38;;;1.60;;
15142;SDS011;7672;50.834;6.286;2022-09-03T08:11:42;4.65;;;1.92;;
15142;SDS011;7672;50.834;6.286;2022-09-03T08:14:10;3.30;;;1.65;;
15142;SDS011;7672;50.834;6.286;2022-09-03T08:16:40;2.33;;;1.80;;
15142;SDS011;7672;50.834;6.286;2022-09-03T08:19:13;2.30;;;2.10;;
15142;SDS011;7672;50.834;6.286;2022-09-03T08:21:42;3.90;;;1.65;;
15142;SDS011;7672;50.834;6.286;2022-09-03T08:24:10;2.22;;;2.00;;
15142;SDS011;7672;50.834;6.286;2022-09-03T08:26:40;2.00;;;1.90;;
15142;SDS011;7672;50.834;6.286;2022-09-03T08:29:13;3.38;;;2.22;;
15142;SDS011;7672;50.834;6.286;2022-09-03T08:31:40;2.92;;;2.17;;
15142;SDS011;7672;50.834;6.286;2022-09-03T08:34:08;2.55;;;1.80;;
15142;SDS011;7672;50.834;6.286;2022-09-03T08:36:37;3.45;;;1.70;;
15142;SDS011;7672;50.834;6.286;2022-09-03T08:39:07;3.38;;;2.00;;
15142;SDS011;7672;50.834;6.286;2022-09-03T08:50:10;2.53;;;1.85;;
15142;SDS011;7672;50.834;6.286;2022-09-03T08:53:06;3.78;;;1.50;;
15142;SDS011;7672;50.834;6.286;2022-09-03T08:58:53;2.20;;;1.60;;
15142;SDS011;7672;50.834;6.286;2022-09-03T09:02:08;2.00;;;1.50;;
15142;SDS011;7672;50.834;6.286;2022-09-03T09:16:21;1.80;;;1.70;;
15142;SDS011;7672;50.834;6.286;2022-09-03T09:22:36;4.28;;;2.13;;
15142;SDS011;7672;50.834;6.286;2022-09-03T09:25:16;3.70;;;2.10;;
15142;SDS011;7672;50.834;6.286;2022-09-03T09:28:34;2.38;;;1.88;;
15142;SDS011;7672;50.834;6.286;2022-09-03T09:30:48;2.45;;;1.85;;
15142;SDS011;7672;50.834;6.286;2022-09-03T09:33:20;2.58;;;2.38;;
15142;SDS011;7672;50.834;6.286;2022-09-03T09:35:48;4.85;;;2.35;;
15142;SDS011;7672;50.834;6.286;2022-09-03T09:38:26;4.68;;;2.20;;
15142;SDS011;7672;50.834;6.286;2022-09-03T09:41:10;4.60;;;2.13;;
15142;SDS011;7672;50.834;6.286;2022-09-03T09:43:45;5.22;;;2.53;;
15142;SDS011;7672;50.834;6.286;2022-09-03T09:46:20;4.45;;;2.42;;
15142;SDS011;7672;50.834;6.286;2022-09-03T09:48:54;4.15;;;2.47;;
15142;SDS011;7672;50.834;6.286;2022-09-03T09:51:27;2.45;;;2.20;;
15142;SDS011;7672;50.834;6.286;2022-09-03T09:54:15;4.60;;;2.75;;
15142;SDS011;7672;50.834;6.286;2022-09-03T09:57:03;4.65;;;2.40;;
15142;SDS011;7672;50.834;6.286;2022-09-03T09:59:34;3.55;;;2.33;;
15142;SDS011;7672;50.834;6.286;2022-09-03T10:02:07;3.22;;;2.50;;
15142;SDS011;7672;50.834;6.286;2022-09-03T10:04:47;4.28;;;2.50;;
15142;SDS011;7672;50.834;6.286;2022-09-03T10:07:25;2.88;;;2.60;;
15142;SDS011;7672;50.834;6.286;2022-09-03T10:10:02;4.78;;;3.08;;
15142;SDS011;7672;50.834;6.286;2022-09-03T10:15:27;3.15;;;2.83;;
15142;SDS011;7672;50.834;6.286;2022-09-03T10:21:19;5.25;;;2.90;;
15142;SDS011;7672;50.834;6.286;2022-09-03T10:27:15;4.93;;;2.90;;
15142;SDS011;7672;50.834;6.286;2022-09-03T10:29:44;3.10;;;2.70;;
15142;SDS011;7672;50.834;6.286;2022-09-03T10:37:59;6.63;;;2.90;;
15142;SDS011;7672;50.834;6.286;2022-09-03T10:41:46;7.60;;;3.45;;
15142;SDS011;7672;50.834;6.286;2022-09-03T10:47:23;3.17;;;2.75;;
15142;SDS011;7672;50.834;6.286;2022-09-03T10:58:42;4.35;;;2.90;;
15142;SDS011;7672;50.834;6.286;2022-09-03T11:04:51;3.70;;;3.22;;
15142;SDS011;7672;50.834;6.286;2022-09-03T11:07:50;3.17;;;2.88;;
15142;SDS011;7672;50.834;6.286;2022-09-03T11:10:27;4.13;;;3.00;;
15142;SDS011;7672;50.834;6.286;2022-09-03T11:15:47;3.10;;;2.75;;
15142;SDS011;7672;50.834;6.286;2022-09-03T11:18:28;3.33;;;2.83;;
15142;SDS011;7672;50.834;6.286;2022-09-03T11:21:15;3.80;;;2.92;;
15142;SDS011;7672;50.834;6.286;2022-09-03T11:23:51;4.57;;;3.08;;
15142;SDS011;7672;50.834;6.286;2022-09-03T11:26:51;5.90;;;3.17;;
15142;SDS011;7672;50.834;6.286;2022-09-03T11:29:52;5.90;;;3.22;;
15142;SDS011;7672;50.834;6.286;2022-09-03T11:35:25;4.65;;;3.53;;
15142;SDS011;7672;50.834;6.286;2022-09-03T11:37:57;5.97;;;4.78;;
15142;SDS011;7672;50.834;6.286;2022-09-03T11:40:31;3.55;;;2.88;;
15142;SDS011;7672;50.834;6.286;2022-09-03T11:43:06;5.05;;;3.10;;
15142;SDS011;7672;50.834;6.286;2022-09-03T11:48:49;3.20;;;2.90;;
15142;SDS011;7672;50.834;6.286;2022-09-03T11:56:38;6.20;;;3.63;;
15142;SDS011;7672;50.834;6.286;2022-09-03T12:02:32;3.65;;;3.20;;
15142;SDS011;7672;50.834;6.286;2022-09-03T12:14:21;3.92;;;3.00;;
15142;SDS011;7672;50.834;6.286;2022-09-03T12:19:51;3.63;;;2.83;;
15142;SDS011;7672;50.834;6.286;2022-09-03T12:22:22;4.93;;;3.83;;
15142;SDS011;7672;50.834;6.286;2022-09-03T12:24:54;3.45;;;3.08;;
15142;SDS011;7672;50.834;6.286;2022-09-03T12:27:36;3.40;;;3.10;;
15142;SDS011;7672;50.834;6.286;2022-09-03T12:30:16;3.35;;;2.80;;
15142;SDS011;7672;50.834;6.286;2022-09-03T12:33:01;4.57;;;3.20;;
15142;SDS011;7672;50.834;6.286;2022-09-03T12:35:33;4.47;;;3.45;;
15142;SDS011;7672;50.834;6.286;2022-09-03T12:38:23;5.22;;;3.30;;
15142;SDS011;7672;50.834;6.286;2022-09-03T12:43:57;3.30;;;3.10;;
15142;SDS011;7672;50.834;6.286;2022-09-03T12:46:27;3.47;;;3.20;;
15142;SDS011;7672;50.834;6.286;2022-09-03T12:49:03;5.82;;;3.20;;
15142;SDS011;7672;50.834;6.286;2022-09-03T12:52:00;3.50;;;3.20;;
15142;SDS011;7672;50.834;6.286;2022-09-03T12:55:07;4.10;;;3.50;;
15142;SDS011;7672;50.834;6.286;2022-09-03T12:57:34;3.88;;;3.40;;
15142;SDS011;7672;50.834;6.286;2022-09-03T13:00:09;3.75;;;3.45;;
15142;SDS011;7672;50.834;6.286;2022-09-03T13:02:45;3.97;;;3.35;;
15142;SDS011;7672;50.834;6.286;2022-09-03T13:05:34;5.63;;;3.67;;
15142;SDS011;7672;50.834;6.286;2022-09-03T13:08:08;3.65;;;3.35;;
15142;SDS011;7672;50.834;6.286;2022-09-03T13:10:43;3.78;;;3.33;;
15142;SDS011;7672;50.834;6.286;2022-09-03T13:31:46;3.17;;;2.97;;
15142;SDS011;7672;50.834;6.286;2022-09-03T13:39:53;3.45;;;2.78;;
15142;SDS011;7672;50.834;6.286;2022-09-03T13:42:33;3.30;;;3.00;;
15142;SDS011;7672;50.834;6.286;2022-09-03T13:45:27;4.40;;;3.10;;
15142;SDS011;7672;50.834;6.286;2022-09-03T13:57:26;4.70;;;3.13;;
15142;SDS011;7672;50.834;6.286;2022-09-03T14:00:11;5.10;;;2.97;;
15142;SDS011;7672;50.834;6.286;2022-09-03T14:03:11;3.65;;;3.35;;
15142;SDS011;7672;50.834;6.286;2022-09-03T14:05:59;4.93;;;3.40;;
15142;SDS011;7672;50.834;6.286;2022-09-03T14:08:44;3.88;;;3.10;;
15142;SDS011;7672;50.834;6.286;2022-09-03T14:11:29;5.93;;;3.40;;
15142;SDS011;7672;50.834;6.286;2022-09-03T14:21:39;6.03;;;3.70;;
15142;SDS011;7672;50.834;6.286;2022-09-03T14:26:54;4.03;;;3.70;;
15142;SDS011;7672;50.834;6.286;2022-09-03T14:29:29;6.95;;;3.78;;
15142;SDS011;7672;50.834;6.286;2022-09-03T14:41:04;4.25;;;3.85;;
15142;SDS011;7672;50.834;6.286;2022-09-03T14:56:29;5.95;;;3.90;;
15142;SDS011;7672;50.834;6.286;2022-09-03T15:11:17;3.47;;;3.28;;
15142;SDS011;7672;50.834;6.286;2022-09-03T15:14:09;3.30;;;3.10;;
15142;SDS011;7672;50.834;6.286;2022-09-03T15:26:04;3.33;;;3.13;;
15142;SDS011;7672;50.834;6.286;2022-09-03T15:32:01;4.28;;;3.50;;
15142;SDS011;7672;50.834;6.286;2022-09-03T15:37:51;4.20;;;3.90;;
15142;SDS011;7672;50.834;6.286;2022-09-03T15:40:28;7.00;;;4.43;;
15142;SDS011;7672;50.834;6.286;2022-09-03T15:43:09;4.38;;;4.07;;
15142;SDS011;7672;50.834;6.286;2022-09-03T15:45:58;4.50;;;4.15;;
15142;SDS011;7672;50.834;6.286;2022-09-03T15:48:46;5.53;;;4.32;;
15142;SDS011;7672;50.834;6.286;2022-09-03T15:54:06;3.80;;;3.33;;
15142;SDS011;7672;50.834;6.286;2022-09-03T15:59:42;3.45;;;3.25;;
15142;SDS011;7672;50.834;6.286;2022-09-03T16:02:30;6.10;;;3.47;;
15142;SDS011;7672;50.834;6.286;2022-09-03T16:05:18;3.40;;;3.20;;
15142;SDS011;7672;50.834;6.286;2022-09-03T16:16:16;3.90;;;3.60;;
15142;SDS011;7672;50.834;6.286;2022-09-03T16:22:10;3.45;;;3.25;;
15142;SDS011;7672;50.834;6.286;2022-09-03T16:27:45;3.60;;;3.30;;
15142;SDS011;7672;50.834;6.286;2022-09-03T16:33:11;6.75;;;4.20;;
15142;SDS011;7672;50.834;6.286;2022-09-03T16:41:46;2.97;;;2.78;;
15142;SDS011;7672;50.834;6.286;2022-09-03T16:44:22;5.22;;;3.10;;
15142;SDS011;7672;50.834;6.286;2022-09-03T16:47:08;3.33;;;3.13;;
15142;SDS011;7672;50.834;6.286;2022-09-03T16:50:02;6.85;;;3.13;;
15142;SDS011;7672;50.834;6.286;2022-09-03T16:53:09;3.30;;;3.00;;
15142;SDS011;7672;50.834;6.286;2022-09-03T16:59:20;3.05;;;2.67;;
15142;SDS011;7672;50.834;6.286;2022-09-03T17:26:20;3.35;;;2.40;;
15142;SDS011;7672;50.834;6.286;2022-09-03T17:29:38;2.20;;;2.10;;
15142;SDS011;7672;50.834;6.286;2022-09-03T17:35:33;2.90;;;2.70;;
15142;SDS011;7672;50.834;6.286;2022-09-03T17:49:57;2.80;;;2.60;;
15142;SDS011;7672;50.834;6.286;2022-09-03T17:53:14;2.63;;;2.42;;
15142;SDS011;7672;50.834;6.286;2022-09-03T17:55:53;2.90;;;2.70;;
15142;SDS011;7672;50.834;6.286;2022-09-03T18:01:01;2.95;;;2.50;;
15142;SDS011;7672;50.834;6.286;2022-09-03T18:03:40;2.33;;;2.15;;
15142;SDS011;7672;50.834;6.286;2022-09-03T18:06:25;3.75;;;2.60;;
15142;SDS011;7672;50.834;6.286;2022-09-03T18:11:46;2.78;;;2.47;;
15142;SDS011;7672;50.834;6.286;2022-09-03T18:14:33;2.63;;;2.42;;
15142;SDS011;7672;50.834;6.286;2022-09-03T18:20:50;2.70;;;2.50;;
15142;SDS011;7672;50.834;6.286;2022-09-03T18:23:57;5.20;;;2.53;;
15142;SDS011;7672;50.834;6.286;2022-09-03T18:27:09;3.80;;;2.42;;
15142;SDS011;7672;50.834;6.286;2022-09-03T18:30:11;2.30;;;2.20;;
15142;SDS011;7672;50.834;6.286;2022-09-03T18:33:00;2.70;;;2.50;;
15142;SDS011;7672;50.834;6.286;2022-09-03T18:35:46;3.38;;;2.88;;
15142;SDS011;7672;50.834;6.286;2022-09-03T18:38:35;2.72;;;2.53;;
15142;SDS011;7672;50.834;6.286;2022-09-03T18:58:00;5.57;;;2.78;;
15142;SDS011;7672;50.834;6.286;2022-09-03T19:01:18;2.40;;;2.30;;
15142;SDS011;7672;50.834;6.286;2022-09-03T19:08:00;3.38;;;2.65;;
15142;SDS011;7672;50.834;6.286;2022-09-03T19:10:44;3.33;;;2.40;;
15142;SDS011;7672;50.834;6.286;2022-09-03T19:13:40;2.40;;;2.30;;
15142;SDS011;7672;50.834;6.286;2022-09-03T19:19:56;2.55;;;2.35;;
15142;SDS011;7672;50.834;6.286;2022-09-03T19:22:48;3.05;;;2.75;;
15142;SDS011;7672;50.834;6.286;2022-09-03T19:25:43;3.63;;;3.00;;
15142;SDS011;7672;50.834;6.286;2022-09-03T19:28:30;2.35;;;2.15;;
15142;SDS011;7672;50.834;6.286;2022-09-03T19:44:18;2.45;;;2.13;;
15142;SDS011;7672;50.834;6.286;2022-09-03T19:48:10;2.13;;;2.03;;
15142;SDS011;7672;50.834;6.286;2022-09-03T19:51:18;2.22;;;2.08;;
15142;SDS011;7672;50.834;6.286;2022-09-03T19:54:21;2.00;;;1.90;;
15142;SDS011;7672;50.834;6.286;2022-09-03T19:57:11;2.88;;;2.50;;
15142;SDS011;7672;50.834;6.286;2022-09-03T20:00:03;3.22;;;2.45;;
15142;SDS011;7672;50.834;6.286;2022-09-03T20:02:58;2.70;;;2.25;;
15142;SDS011;7672;50.834;6.286;2022-09-03T20:05:46;2.67;;;2.28;;
15142;SDS011;7672;50.834;6.286;2022-09-03T20:08:36;2.50;;;2.30;;
15142;SDS011;7672;50.834;6.286;2022-09-03T20:11:23;2.33;;;2.13;;
15142;SDS011;7672;50.834;6.286;2022-09-03T20:14:03;2.28;;;2.08;;
15142;SDS011;7672;50.834;6.286;2022-09-03T20:20:00;2.03;;;1.92;;
15142;SDS011;7672;50.834;6.286;2022-09-03T20:22:52;2.50;;;2.28;;
15142;SDS011;7672;50.834;6.286;2022-09-03T20:37:33;11.93;;;10.73;;
15142;SDS011;7672;50.834;6.286;2022-09-03T20:46:32;3.08;;;1.88;;
15142;SDS011;7672;50.834;6.286;2022-09-03T20:49:25;2.35;;;2.15;;
15142;SDS011;7672;50.834;6.286;2022-09-03T20:55:22;4.63;;;2.37;;
15142;SDS011;7672;50.834;6.286;2022-09-03T21:01:42;3.60;;;2.15;;
15142;SDS011;7672;50.834;6.286;2022-09-03T21:04:40;2.53;;;2.33;;
15142;SDS011;7672;50.834;6.286;2022-09-03T21:10:33;2.40;;;2.00;;
15142;SDS011;7672;50.834;6.286;2022-09-03T21:13:37;2.40;;;2.20;;
15142;SDS011;7672;50.834;6.286;2022-09-03T21:26:28;3.57;;;2.10;;
15142;SDS011;7672;50.834;6.286;2022-09-03T21:28:49;2.57;;;2.20;;
15142;SDS011;7672;50.834;6.286;2022-09-03T21:31:33;1.87;;;1.77;;
15142;SDS011;7672;50.834;6.286;2022-09-03T21:34:20;2.37;;;2.00;;
15142;SDS011;7672;50.834;6.286;2022-09-03T21:37:20;3.27;;;1.90;;
15142;SDS011;7672;50.834;6.286;2022-09-03T21:39:50;2.57;;;2.37;;
15142;SDS011;7672;50.834;6.286;2022-09-03T21:42:43;2.45;;;2.25;;
15142;SDS011;7672;50.834;6.286;2022-09-03T21:48:14;2.17;;;1.97;;
15142;SDS011;7672;50.834;6.286;2022-09-03T21:51:02;2.43;;;1.80;;
15142;SDS011;7672;50.834;6.286;2022-09-03T22:02:30;3.20;;;2.20;;
15142;SDS011;7672;50.834;6.286;2022-09-03T22:05:02;2.53;;;2.33;;
15142;SDS011;7672;50.834;6.286;2022-09-03T22:07:37;1.97;;;1.80;;
15142;SDS011;7672;50.834;6.286;2022-09-03T22:13:42;1.90;;;1.80;;
15142;SDS011;7672;50.834;6.286;2022-09-03T22:16:22;2.30;;;2.10;;
15142;SDS011;7672;50.834;6.286;2022-09-03T22:19:00;2.57;;;2.37;;
15142;SDS011;7672;50.834;6.286;2022-09-03T22:24:36;2.00;;;1.90;;
15142;SDS011;7672;50.834;6.286;2022-09-03T22:27:16;2.00;;;1.90;;
15142;SDS011;7672;50.834;6.286;2022-09-03T22:30:06;2.20;;;2.10;;
15142;SDS011;7672;50.834;6.286;2022-09-03T22:38:51;2.07;;;1.97;;
15142;SDS011;7672;50.834;6.286;2022-09-03T22:47:44;2.50;;;2.30;;
15142;SDS011;7672;50.834;6.286;2022-09-03T22:56:37;2.30;;;2.10;;
15142;SDS011;7672;50.834;6.286;2022-09-03T22:59:17;2.30;;;2.10;;
15142;SDS011;7672;50.834;6.286;2022-09-03T23:02:20;2.53;;;2.33;;
15142;SDS011;7672;50.834;6.286;2022-09-03T23:05:03;10.90;;;2.63;;
15142;SDS011;7672;50.834;6.286;2022-09-03T23:08:14;5.07;;;3.07;;